createdAt,value
2023-03-22T00:01:31.030Z,40.80
2023-03-22T00:03:59.294Z,40.80
2023-03-22T00:06:29.286Z,40.60
2023-03-22T00:08:58.703Z,40.30
2023-03-22T00:11:26.800Z,40.20
2023-03-22T00:13:55.269Z,40.60
2023-03-22T00:16:23.676Z,41.10
2023-03-22T00:18:52.047Z,41.10
2023-03-22T00:21:21.927Z,40.70
2023-03-22T00:23:49.947Z,40.30
2023-03-22T00:26:19.378Z,40.50
2023-03-22T00:28:47.326Z,40.20
2023-03-22T00:31:15.283Z,40.80
2023-03-22T00:33:43.260Z,40.30
2023-03-22T00:36:13.468Z,41.10
2023-03-22T00:38:43.121Z,41.30
2023-03-22T00:41:14.290Z,41.00
2023-03-22T00:43:44.483Z,40.80
2023-03-22T00:46:14.167Z,41.20
2023-03-22T00:48:42.593Z,41.00
2023-03-22T00:51:11.669Z,41.10
2023-03-22T00:53:43.107Z,41.10
2023-03-22T00:56:15.482Z,40.90
2023-03-22T00:58:44.808Z,40.70
2023-03-22T01:01:14.495Z,41.00
2023-03-22T01:03:43.866Z,41.30
2023-03-22T01:06:12.478Z,41.30
2023-03-22T01:08:40.547Z,41.40
2023-03-22T01:11:10.133Z,41.30
2023-03-22T01:13:38.880Z,41.00
2023-03-22T01:16:10.845Z,41.00
2023-03-22T01:18:38.948Z,41.00
2023-03-22T01:21:07.776Z,40.70
2023-03-22T01:23:36.379Z,41.50
2023-03-22T01:26:05.556Z,41.20
2023-03-22T01:28:33.621Z,41.30
2023-03-22T01:31:03.927Z,41.50
2023-03-22T01:33:33.449Z,41.40
2023-03-22T01:36:01.499Z,41.50
2023-03-22T01:38:29.571Z,41.80
2023-03-22T01:40:58.101Z,41.30
2023-03-22T01:43:27.632Z,41.40
2023-03-22T01:45:56.465Z,40.90
2023-03-22T01:48:29.303Z,41.30
2023-03-22T01:51:08.863Z,41.70
2023-03-22T01:53:40.938Z,41.50
2023-03-22T01:56:10.402Z,42.00
2023-03-22T01:58:40.670Z,41.20
2023-03-22T02:01:11.515Z,41.90
2023-03-22T02:03:48.565Z,42.90
2023-03-22T02:06:18.538Z,42.00
2023-03-22T02:08:47.005Z,41.70
2023-03-22T02:11:18.097Z,42.20
2023-03-22T02:14:18.350Z,42.40
2023-03-22T02:17:00.022Z,42.00
2023-03-22T02:20:07.864Z,42.20
2023-03-22T02:23:10.935Z,42.50
2023-03-22T02:26:13.785Z,42.40
2023-03-22T02:28:50.138Z,42.50
2023-03-22T02:32:02.203Z,41.60
2023-03-22T02:35:10.058Z,41.90
2023-03-22T02:38:34.835Z,41.60
2023-03-22T02:41:13.359Z,41.80
2023-03-22T02:43:52.442Z,41.90
2023-03-22T02:46:26.463Z,42.20
2023-03-22T02:49:03.041Z,41.70
2023-03-22T02:51:38.718Z,42.10
2023-03-22T02:54:11.802Z,41.90
2023-03-22T02:56:45.184Z,42.00
2023-03-22T02:59:14.877Z,42.00
2023-03-22T03:01:49.177Z,41.80
2023-03-22T03:04:21.166Z,41.80
2023-03-22T03:06:52.273Z,41.70
2023-03-22T03:09:22.362Z,41.70
2023-03-22T03:11:54.394Z,41.70
2023-03-22T03:14:25.152Z,41.90
2023-03-22T03:17:09.866Z,41.80
2023-03-22T03:19:46.874Z,41.70
2023-03-22T03:22:39.474Z,42.00
2023-03-22T03:25:18.272Z,42.20
2023-03-22T03:27:57.397Z,42.20
2023-03-22T03:30:33.586Z,42.10
2023-03-22T03:33:06.577Z,42.10
2023-03-22T03:35:39.371Z,41.80
2023-03-22T03:38:11.840Z,42.00
2023-03-22T03:40:45.150Z,41.90
2023-03-22T03:43:15.475Z,42.00
2023-03-22T03:45:45.597Z,41.70
2023-03-22T03:48:20.326Z,41.80
2023-03-22T03:50:51.732Z,42.10
2023-03-22T03:53:19.936Z,41.30
2023-03-22T03:55:47.918Z,41.90
2023-03-22T03:58:17.342Z,42.50
2023-03-22T04:00:46.530Z,42.30
2023-03-22T04:03:15.243Z,42.70
2023-03-22T04:05:43.330Z,42.80
2023-03-22T04:08:11.282Z,42.50
2023-03-22T04:10:39.482Z,42.80
2023-03-22T04:13:07.653Z,42.80
2023-03-22T04:15:37.026Z,42.70
2023-03-22T04:18:05.374Z,42.50
2023-03-22T04:20:33.383Z,42.70
2023-03-22T04:23:01.426Z,42.20
2023-03-22T04:25:30.362Z,42.70
2023-03-22T04:28:00.382Z,42.60
2023-03-22T04:30:28.348Z,42.60
2023-03-22T04:32:57.823Z,42.80
2023-03-22T04:35:25.762Z,42.60
2023-03-22T04:37:53.787Z,42.80
2023-03-22T04:40:21.736Z,42.80
2023-03-22T04:42:49.738Z,42.80
2023-03-22T04:45:17.855Z,42.80
2023-03-22T04:47:45.962Z,43.00
2023-03-22T04:50:15.356Z,42.90
2023-03-22T04:52:43.325Z,42.80
2023-03-22T04:55:11.380Z,42.80
2023-03-22T04:57:39.293Z,42.70
2023-03-22T05:00:09.996Z,42.50
2023-03-22T05:02:41.429Z,42.70
2023-03-22T05:05:10.115Z,42.60
2023-03-22T05:07:39.669Z,42.40
2023-03-22T05:10:09.524Z,42.40
2023-03-22T05:12:37.473Z,42.40
2023-03-22T05:15:07.066Z,42.20
2023-03-22T05:17:35.184Z,42.50
2023-03-22T05:20:09.415Z,42.80
2023-03-22T05:22:40.409Z,43.60
2023-03-22T05:25:11.346Z,43.10
2023-03-22T05:27:39.300Z,42.90
2023-03-22T05:30:09.811Z,42.90
2023-03-22T05:32:42.915Z,42.40
2023-03-22T05:35:11.494Z,42.80
2023-03-22T05:37:41.401Z,42.50
2023-03-22T05:40:10.858Z,43.10
2023-03-22T05:42:38.824Z,43.30
2023-03-22T05:45:08.467Z,42.80
2023-03-22T05:47:39.216Z,42.70
2023-03-22T05:50:09.893Z,42.90
2023-03-22T05:52:39.597Z,42.80
2023-03-22T05:55:08.773Z,43.20
2023-03-22T05:57:36.971Z,43.40
2023-03-22T06:00:10.288Z,42.80
2023-03-22T06:02:38.246Z,42.80
2023-03-22T06:05:07.530Z,42.30
2023-03-22T06:07:35.545Z,43.20
2023-03-22T06:10:05.292Z,42.70
2023-03-22T06:12:33.634Z,42.80
2023-03-22T06:15:01.978Z,43.20
2023-03-22T06:17:30.561Z,43.20
2023-03-22T06:19:58.705Z,43.20
2023-03-22T06:22:26.978Z,43.40
2023-03-22T06:24:54.962Z,43.50
2023-03-22T06:27:24.296Z,43.50
2023-03-22T06:29:54.627Z,42.90
2023-03-22T06:32:23.519Z,42.70
2023-03-22T06:34:51.878Z,43.30
2023-03-22T06:37:20.231Z,43.10
2023-03-22T06:39:48.207Z,42.10
2023-03-22T06:42:16.392Z,40.90
2023-03-22T06:44:45.813Z,39.00
2023-03-22T06:47:14.283Z,38.40
2023-03-22T06:49:42.341Z,37.60
2023-03-22T06:52:10.829Z,37.90
2023-03-22T06:54:38.826Z,38.60
2023-03-22T06:57:06.827Z,38.40
2023-03-22T06:59:34.912Z,38.50
2023-03-22T07:02:04.758Z,38.30
2023-03-22T07:04:33.068Z,39.60
2023-03-22T07:07:01.124Z,38.40
2023-03-22T07:09:29.156Z,38.90
2023-03-22T07:11:57.089Z,38.80
2023-03-22T07:14:25.190Z,38.70
2023-03-22T07:16:53.159Z,39.00
2023-03-22T07:19:22.539Z,39.10
2023-03-22T07:21:50.688Z,38.90
2023-03-22T07:24:18.731Z,38.50
2023-03-22T07:26:46.749Z,38.30
2023-03-22T07:29:14.740Z,38.90
2023-03-22T07:31:42.699Z,38.70
2023-03-22T07:34:11.083Z,38.00
2023-03-22T07:36:40.592Z,38.50
2023-03-22T07:39:08.649Z,38.10
2023-03-22T07:41:36.652Z,38.30
2023-03-22T07:44:16.971Z,38.20
2023-03-22T07:46:45.650Z,37.50
2023-03-22T07:49:13.883Z,37.70
2023-03-22T07:51:43.203Z,38.20
2023-03-22T07:54:14.045Z,38.20
2023-03-22T07:56:47.939Z,37.70
2023-03-22T07:59:16.360Z,37.90
2023-03-22T08:01:44.467Z,38.00
2023-03-22T08:04:12.565Z,37.40
2023-03-22T08:06:42.620Z,37.40
2023-03-22T08:09:12.810Z,37.30
2023-03-22T08:11:41.566Z,37.40
2023-03-22T08:14:10.082Z,36.70
2023-03-22T08:16:38.888Z,37.00
2023-03-22T08:19:07.042Z,36.50
2023-03-22T08:21:35.138Z,37.20
2023-03-22T08:24:03.489Z,36.70
2023-03-22T08:26:32.861Z,36.80
2023-03-22T08:29:00.908Z,36.70
2023-03-22T08:31:29.386Z,36.50
2023-03-22T08:33:57.445Z,36.00
2023-03-22T08:36:25.579Z,32.10
2023-03-22T08:38:53.766Z,28.20
2023-03-22T08:41:23.494Z,27.30
2023-03-22T08:43:52.870Z,27.20
2023-03-22T08:46:20.850Z,25.10
2023-03-22T08:48:50.674Z,24.20
2023-03-22T08:51:19.906Z,25.20
2023-03-22T08:53:48.065Z,24.10
2023-03-22T08:56:16.943Z,27.30
2023-03-22T08:58:46.691Z,27.10
2023-03-22T09:01:20.834Z,26.60
2023-03-22T09:03:48.930Z,27.30
2023-03-22T09:06:16.849Z,27.20
2023-03-22T09:08:44.847Z,27.60
2023-03-22T09:11:15.642Z,27.80
2023-03-22T09:13:45.951Z,28.00
2023-03-22T09:16:16.506Z,28.20
2023-03-22T09:18:44.959Z,28.20
2023-03-22T09:21:13.573Z,28.40
2023-03-22T09:23:42.367Z,28.60
2023-03-22T09:26:10.990Z,28.40
2023-03-22T09:28:39.034Z,28.60
2023-03-22T09:31:10.320Z,28.50
2023-03-22T09:33:42.277Z,28.70
2023-03-22T09:36:11.876Z,28.80
2023-03-22T09:38:41.233Z,28.70
2023-03-22T09:41:16.147Z,28.50
2023-03-22T09:43:48.925Z,28.80
2023-03-22T09:46:23.359Z,29.00
2023-03-22T09:48:53.098Z,29.40
2023-03-22T09:51:40.741Z,28.90
2023-03-22T09:54:18.368Z,29.00
2023-03-22T09:56:51.033Z,29.30
2023-03-22T09:59:27.061Z,29.40
2023-03-22T10:02:00.617Z,29.00
2023-03-22T10:04:47.806Z,29.40
2023-03-22T10:07:27.111Z,29.40
2023-03-22T10:10:08.345Z,29.50
2023-03-22T10:12:43.721Z,29.30
2023-03-22T10:15:16.757Z,29.30
2023-03-22T10:17:49.383Z,29.50
2023-03-22T10:20:32.867Z,29.50
2023-03-22T10:23:05.725Z,29.20
2023-03-22T10:25:38.899Z,28.60
2023-03-22T10:28:18.149Z,28.80
2023-03-22T10:30:51.073Z,29.10
2023-03-22T10:33:31.136Z,29.10
2023-03-22T10:36:02.062Z,28.80
2023-03-22T10:38:32.762Z,28.30
2023-03-22T10:41:02.468Z,28.90
2023-03-22T10:43:35.835Z,29.20
2023-03-22T10:46:07.583Z,28.80
2023-03-22T10:48:38.531Z,29.30
2023-03-22T10:51:08.711Z,29.10
2023-03-22T10:53:40.732Z,29.20
2023-03-22T10:56:15.485Z,29.00
2023-03-22T10:58:44.067Z,29.00
2023-03-22T11:01:14.777Z,28.50
2023-03-22T11:03:45.157Z,28.80
2023-03-22T11:06:18.650Z,28.80
2023-03-22T11:08:49.103Z,28.80
2023-03-22T11:11:26.870Z,29.00
2023-03-22T11:14:01.257Z,28.50
2023-03-22T11:16:31.774Z,29.00
2023-03-22T11:19:03.040Z,28.70
2023-03-22T11:21:34.470Z,29.10
2023-03-22T11:24:06.810Z,28.80
2023-03-22T11:26:40.743Z,29.00
2023-03-22T11:29:16.446Z,29.30
2023-03-22T11:31:56.247Z,29.10
2023-03-22T11:34:28.475Z,29.20
2023-03-22T11:37:01.645Z,29.20
2023-03-22T11:39:30.948Z,29.00
2023-03-22T11:42:01.302Z,29.10
2023-03-22T11:44:35.403Z,29.20
2023-03-22T11:47:05.685Z,28.90
2023-03-22T11:49:41.552Z,29.40
2023-03-22T11:52:15.992Z,28.90
2023-03-22T11:54:45.672Z,29.30
2023-03-22T11:57:19.002Z,28.60
2023-03-22T11:59:53.783Z,29.20
2023-03-22T12:02:26.568Z,29.30
2023-03-22T12:05:01.736Z,29.50
2023-03-22T12:07:33.974Z,28.60
2023-03-22T12:10:07.948Z,29.30
2023-03-22T12:12:40.159Z,29.00
2023-03-22T12:15:16.925Z,29.20
2023-03-22T12:17:50.005Z,29.60
2023-03-22T12:20:32.552Z,29.20
2023-03-22T12:23:03.495Z,29.60
2023-03-22T12:25:36.185Z,29.70
2023-03-22T12:28:09.109Z,29.40
2023-03-22T12:30:43.259Z,29.60
2023-03-22T12:33:20.595Z,30.00
2023-03-22T12:35:51.684Z,29.80
2023-03-22T12:38:29.570Z,30.00
2023-03-22T12:41:02.019Z,30.00
2023-03-22T12:43:46.617Z,30.10
2023-03-22T12:46:21.615Z,30.00
2023-03-22T12:48:54.750Z,30.10
2023-03-22T12:51:22.939Z,27.90
2023-03-22T12:53:57.743Z,24.40
2023-03-22T12:56:31.702Z,26.00
2023-03-22T12:59:04.509Z,26.40
2023-03-22T13:01:38.298Z,26.80
2023-03-22T13:04:31.267Z,27.00
2023-03-22T13:07:12.355Z,27.40
2023-03-22T13:09:44.553Z,27.50
2023-03-22T13:12:34.826Z,27.60
2023-03-22T13:15:40.469Z,28.10
2023-03-22T13:18:33.568Z,28.30
2023-03-22T13:21:14.374Z,28.50
2023-03-22T13:23:57.939Z,28.60
2023-03-22T13:26:36.306Z,28.50
2023-03-22T13:29:17.169Z,28.90
2023-03-22T13:31:48.499Z,29.20
2023-03-22T13:34:20.487Z,28.80
2023-03-22T13:36:56.327Z,28.70
2023-03-22T13:39:27.368Z,29.20
2023-03-22T13:42:09.702Z,28.90
2023-03-22T13:44:42.771Z,28.70
2023-03-22T13:47:33.515Z,29.30
2023-03-22T13:50:08.311Z,29.10
2023-03-22T13:52:39.928Z,29.50
2023-03-22T13:55:37.182Z,29.90
2023-03-22T13:58:13.067Z,29.50
2023-03-22T14:00:49.397Z,29.80
2023-03-22T14:03:26.602Z,29.90
2023-03-22T14:06:15.685Z,30.00
2023-03-22T14:08:45.412Z,29.90
2023-03-22T14:11:24.161Z,30.00
2023-03-22T14:13:59.583Z,29.80
2023-03-22T14:16:40.352Z,30.10
2023-03-22T14:19:17.457Z,29.70
